Time;durP1;ratioP1;P1;durP2;ratioP2;P2;SDS_P1;SDS_P2;PMS_P1;PMS_P2;Temp;Humidity;BMP_temperature;BMP_pressure;BME280_temperature;BME280_humidity;BME280_pressure;Samples;Min_cycle;Max_cycle;Signal;HPM_P1;HPM_P2
2022/04/10 00:01:49;;;;;;;7.93;6.27;;;5.90;99.90;;;;;;5117714;28;20300;-90
2022/04/10 00:04:16;;;;;;;6.53;4.80;;;5.90;99.90;;;;;;5118441;27;20224;-81
2022/04/10 00:06:43;;;;;;;7.57;4.67;;;5.80;99.90;;;;;;5119729;28;20201;-82
2022/04/10 00:09:10;;;;;;;5.10;4.67;;;5.80;99.90;;;;;;5120329;28;20540;-88
2022/04/10 00:11:36;;;;;;;6.50;4.93;;;5.90;99.90;;;;;;5118418;28;20211;-80
2022/04/10 00:14:03;;;;;;;5.07;4.57;;;5.80;99.90;;;;;;5119483;28;20203;-92
2022/04/10 00:16:32;;;;;;;6.90;4.37;;;5.90;99.90;;;;;;5118140;28;20215;-84
2022/04/10 00:19:04;;;;;;;5.63;4.90;;;5.90;99.90;;;;;;5124143;27;20203;-82
2022/04/10 00:21:32;;;;;;;5.97;5.37;;;5.90;99.90;;;;;;5125261;28;20230;-82
2022/04/10 00:23:59;;;;;;;5.93;4.67;;;5.90;99.90;;;;;;5125522;28;20223;-82
2022/04/10 00:26:26;;;;;;;5.27;4.80;;;5.90;99.90;;;;;;5126175;28;20631;-80
2022/04/10 00:28:53;;;;;;;5.17;4.67;;;5.60;99.90;;;;;;5125621;27;20647;-80
2022/04/10 00:31:20;;;;;;;7.00;5.20;;;5.70;99.90;;;;;;5123036;28;20207;-84
2022/04/10 00:33:47;;;;;;;5.50;5.00;;;5.70;99.90;;;;;;5121024;28;20196;-80
2022/04/10 00:36:15;;;;;;;6.60;4.73;;;5.60;99.90;;;;;;5120779;27;20222;-79
2022/04/10 00:38:42;;;;;;;8.47;6.17;;;5.60;99.90;;;;;;5119596;28;20193;-81
2022/04/10 00:41:10;;;;;;;13.03;6.67;;;5.60;99.90;;;;;;5119094;28;20199;-79
2022/04/10 00:43:38;;;;;;;9.77;6.00;;;5.60;99.90;;;;;;5116420;27;20230;-79
2022/04/10 00:46:05;;;;;;;10.18;5.97;;;5.50;99.90;;;;;;5116771;28;20425;-79
2022/04/10 00:48:32;;;;;;;6.07;5.47;;;5.50;99.90;;;;;;5116696;28;20191;-82
2022/04/10 00:53:47;;;;;;;6.37;4.83;;;5.50;99.90;;;;;;5115982;28;20203;-87
2022/04/10 00:56:14;;;;;;;7.50;5.37;;;5.50;99.90;;;;;;5116142;27;20204;-86
2022/04/10 00:58:42;;;;;;;7.13;5.10;;;5.50;99.90;;;;;;5116488;27;20203;-93
2022/04/10 01:01:14;;;;;;;7.30;4.97;;;5.50;99.90;;;;;;5120619;27;20196;-81
2022/04/10 01:03:41;;;;;;;8.10;5.37;;;5.50;99.90;;;;;;5121310;28;20263;-86
2022/04/10 01:06:09;;;;;;;8.03;5.13;;;5.50;99.90;;;;;;5123059;28;20192;-81
2022/04/10 01:08:42;;;;;;;10.43;5.17;;;5.50;99.90;;;;;;5124561;28;20655;-84
2022/04/10 01:11:11;;;;;;;7.27;4.90;;;5.40;99.90;;;;;;5124318;28;20204;-91
2022/04/10 01:13:39;;;;;;;7.53;5.67;;;5.40;99.90;;;;;;5121238;28;20189;-88
2022/04/10 01:16:05;;;;;;;7.63;5.30;;;5.30;99.90;;;;;;5117649;28;20195;-81
2022/04/10 01:18:35;;;;;;;6.30;4.83;;;5.30;99.90;;;;;;5117853;28;20207;-79
2022/04/10 01:21:03;;;;;;;5.57;5.03;;;5.30;99.90;;;;;;5120780;28;20204;-91
2022/04/10 01:23:33;;;;;;;6.03;5.00;;;5.30;99.90;;;;;;5121081;28;20228;-93
2022/04/10 01:26:00;;;;;;;8.00;5.07;;;5.20;99.90;;;;;;5120803;28;20208;-89
2022/04/10 01:28:27;;;;;;;5.47;5.03;;;5.30;99.90;;;;;;5121680;27;20309;-80
2022/04/10 01:30:54;;;;;;;5.70;5.07;;;5.30;99.90;;;;;;5121463;27;20196;-88
2022/04/10 01:33:21;;;;;;;7.77;5.53;;;5.30;99.90;;;;;;5121496;28;20185;-86
2022/04/10 01:35:49;;;;;;;8.47;5.37;;;5.30;99.90;;;;;;5121231;28;20189;-84
2022/04/10 01:38:19;;;;;;;8.17;5.77;;;5.20;99.90;;;;;;5121516;27;20265;-78
2022/04/10 01:40:52;;;;;;;6.00;5.30;;;5.30;99.90;;;;;;5122278;28;20208;-82
2022/04/10 01:43:24;;;;;;;7.03;5.47;;;5.30;99.90;;;;;;5122314;28;20714;-82
2022/04/10 01:45:51;;;;;;;5.80;5.30;;;5.10;99.90;;;;;;5122739;28;20201;-78
2022/04/10 01:48:18;;;;;;;6.10;5.33;;;5.10;99.90;;;;;;5122289;28;20200;-82
2022/04/10 01:50:47;;;;;;;7.17;5.13;;;5.00;99.90;;;;;;5121792;28;20196;-77
2022/04/10 01:53:14;;;;;;;7.10;5.50;;;5.00;99.90;;;;;;5123508;28;20204;-85
2022/04/10 01:55:41;;;;;;;7.10;5.53;;;5.00;99.90;;;;;;5124369;28;20196;-79
2022/04/10 01:58:09;;;;;;;8.43;6.03;;;5.00;99.90;;;;;;5122487;28;20443;-80
2022/04/10 02:00:36;;;;;;;6.27;5.67;;;4.80;99.90;;;;;;5123293;28;20249;-80
2022/04/10 02:03:03;;;;;;;7.63;5.73;;;4.80;99.90;;;;;;5121214;28;20219;-82
2022/04/10 02:05:31;;;;;;;7.83;5.60;;;4.70;99.90;;;;;;5123189;27;20211;-77
2022/04/10 02:07:58;;;;;;;8.37;6.10;;;4.70;99.90;;;;;;5123571;27;20456;-77
2022/04/10 02:10:25;;;;;;;7.73;6.33;;;4.70;99.90;;;;;;5123453;27;20206;-77
2022/04/10 02:12:54;;;;;;;10.53;6.73;;;4.60;99.90;;;;;;5125067;27;20861;-86
2022/04/10 02:15:24;;;;;;;9.13;6.67;;;4.60;99.90;;;;;;5124465;28;20450;-79
2022/04/10 02:17:52;;;;;;;8.67;6.70;;;4.50;99.90;;;;;;5124424;27;20448;-78
2022/04/10 02:20:19;;;;;;;5.57;5.03;;;4.50;99.90;;;;;;5124016;28;20487;-81
2022/04/10 02:22:46;;;;;;;6.93;6.23;;;4.50;99.90;;;;;;5123165;28;20495;-79
2022/04/10 02:25:14;;;;;;;9.90;6.80;;;4.60;99.90;;;;;;5123402;28;20441;-78
2022/04/10 02:27:41;;;;;;;9.57;6.73;;;4.40;99.90;;;;;;5123177;27;20437;-78
2022/04/10 02:30:10;;;;;;;10.07;6.50;;;4.50;99.90;;;;;;5131917;27;20938;-80
2022/04/10 02:32:39;;;;;;;9.90;6.97;;;4.50;99.90;;;;;;5143283;27;20497;-83
2022/04/10 02:35:06;;;;;;;7.47;6.70;;;4.50;99.90;;;;;;5143984;27;20432;-80
2022/04/10 02:37:33;;;;;;;9.43;6.90;;;4.50;99.90;;;;;;5143266;27;20432;-78
2022/04/10 02:40:00;;;;;;;8.17;6.50;;;4.50;99.90;;;;;;5142456;27;20447;-77
2022/04/10 02:42:27;;;;;;;10.63;6.83;;;4.40;99.90;;;;;;5142321;27;20472;-80
2022/04/10 02:44:54;;;;;;;9.47;6.80;;;4.40;99.90;;;;;;5143203;27;20997;-78
2022/04/10 02:47:21;;;;;;;10.17;7.40;;;4.40;99.90;;;;;;5142557;27;20450;-82
2022/04/10 02:49:50;;;;;;;8.23;6.73;;;4.30;99.90;;;;;;5143584;27;20447;-78
2022/04/10 02:52:16;;;;;;;9.13;6.60;;;4.20;99.90;;;;;;5144567;27;20516;-84
2022/04/10 02:54:44;;;;;;;7.77;6.97;;;4.10;99.90;;;;;;5142087;27;20452;-82
2022/04/10 02:57:12;;;;;;;12.50;7.03;;;4.10;99.90;;;;;;5141380;27;20853;-78
2022/04/10 02:59:39;;;;;;;8.57;6.87;;;4.30;99.90;;;;;;5142600;27;20447;-77
2022/04/10 03:02:06;;;;;;;9.77;6.90;;;4.20;99.90;;;;;;5141001;27;20451;-77
2022/04/10 03:04:32;;;;;;;10.43;6.57;;;4.20;99.90;;;;;;5141222;27;20440;-78
2022/04/10 03:07:01;;;;;;;8.77;7.03;;;4.10;99.90;;;;;;5141632;27;20424;-80
2022/04/10 03:09:28;;;;;;;7.43;6.67;;;4.10;99.90;;;;;;5139994;27;20917;-80
2022/04/10 03:11:54;;;;;;;7.67;6.63;;;4.00;99.90;;;;;;5140812;27;20911;-80
2022/04/10 03:14:21;;;;;;;11.03;7.27;;;4.00;99.90;;;;;;5141533;27;20428;-83
2022/04/10 03:16:48;;;;;;;7.47;6.70;;;3.90;99.90;;;;;;5140310;27;20436;-79
2022/04/10 03:19:16;;;;;;;8.97;6.60;;;3.90;99.90;;;;;;5140588;27;20843;-87
2022/04/10 03:21:43;;;;;;;8.10;6.90;;;3.80;99.90;;;;;;5139753;27;20424;-79
2022/04/10 03:24:11;;;;;;;14.33;8.40;;;3.70;99.90;;;;;;5140136;27;20483;-86
2022/04/10 03:26:38;;;;;;;9.53;7.33;;;3.70;99.90;;;;;;5140755;27;20452;-79
2022/04/10 03:29:06;;;;;;;9.57;7.20;;;3.80;99.90;;;;;;5140118;27;20456;-84
2022/04/10 03:31:33;;;;;;;12.93;7.90;;;3.80;99.90;;;;;;5139750;27;20451;-79
2022/04/10 03:34:00;;;;;;;10.00;7.67;;;3.70;99.90;;;;;;5139550;27;20432;-82
2022/04/10 03:36:27;;;;;;;12.70;7.57;;;3.70;99.90;;;;;;5139425;27;20436;-78
2022/04/10 03:38:53;;;;;;;12.50;8.07;;;3.60;99.90;;;;;;5140898;27;20475;-82
2022/04/10 03:41:22;;;;;;;10.20;8.20;;;3.60;99.90;;;;;;5138776;27;20440;-80
2022/04/10 03:43:48;;;;;;;9.17;7.73;;;3.50;99.90;;;;;;5139846;27;20986;-80
2022/04/10 03:46:15;;;;;;;10.87;8.57;;;3.40;99.90;;;;;;5140559;27;20436;-86
2022/04/10 03:48:42;;;;;;;14.73;8.60;;;3.60;99.90;;;;;;5139074;27;20467;-83
2022/04/10 03:51:09;;;;;;;9.80;8.33;;;3.60;99.90;;;;;;5139512;27;20451;-87
2022/04/10 03:53:36;;;;;;;14.60;8.27;;;3.50;99.90;;;;;;5139463;27;20459;-84
2022/04/10 03:56:03;;;;;;;10.03;8.23;;;3.50;99.90;;;;;;5139245;27;20789;-79
2022/04/10 03:58:31;;;;;;;12.27;9.20;;;3.60;99.90;;;;;;5138402;27;20448;-83
2022/04/10 04:00:58;;;;;;;13.10;8.07;;;3.60;99.90;;;;;;5138811;27;20440;-78
2022/04/10 04:03:25;;;;;;;11.43;8.30;;;3.50;99.90;;;;;;5138094;27;20506;-81
2022/04/10 04:05:53;;;;;;;10.70;8.70;;;3.50;99.90;;;;;;5138337;27;20451;-80
2022/04/10 04:08:20;;;;;;;11.93;9.03;;;3.50;99.90;;;;;;5137628;27;20923;-80
2022/04/10 04:10:47;;;;;;;11.30;9.13;;;3.50;99.90;;;;;;5138553;27;20907;-78
2022/04/10 04:13:13;;;;;;;13.30;8.97;;;3.40;99.90;;;;;;5138203;27;20440;-84
2022/04/10 04:15:41;;;;;;;12.83;9.80;;;3.40;99.90;;;;;;5138093;27;20428;-80
2022/04/10 04:18:08;;;;;;;11.07;9.83;;;3.40;99.90;;;;;;5137683;27;20463;-79
2022/04/10 04:20:35;;;;;;;14.83;8.67;;;3.40;99.90;;;;;;5137976;27;20428;-81
2022/04/10 04:23:02;;;;;;;18.13;9.50;;;3.40;99.90;;;;;;5137238;27;20495;-81
2022/04/10 04:25:29;;;;;;;11.70;9.03;;;3.40;99.90;;;;;;5137306;27;20451;-81
2022/04/10 04:27:56;;;;;;;14.23;8.97;;;3.30;99.90;;;;;;5137578;27;20448;-80
2022/04/10 04:30:22;;;;;;;14.60;10.30;;;3.30;99.90;;;;;;5137252;27;20531;-87
2022/04/10 04:32:51;;;;;;;14.57;9.67;;;3.30;99.90;;;;;;5137536;27;20440;-84
2022/04/10 04:35:17;;;;;;;13.70;10.23;;;3.40;99.90;;;;;;5138148;27;20443;-83
2022/04/10 04:37:44;;;;;;;15.70;9.97;;;3.30;99.90;;;;;;5136936;27;20436;-81
2022/04/10 04:40:12;;;;;;;15.47;10.03;;;3.30;99.90;;;;;;5136485;27;20448;-81
2022/04/10 04:42:39;;;;;;;15.83;10.00;;;3.20;99.90;;;;;;5136183;27;20428;-80
2022/04/10 04:45:07;;;;;;;16.37;10.23;;;3.20;99.90;;;;;;5137103;27;20444;-86
2022/04/10 04:47:34;;;;;;;17.87;10.07;;;3.20;99.90;;;;;;5137175;27;20436;-80
2022/04/10 04:50:06;;;;;;;12.53;10.50;;;3.20;99.90;;;;;;5136825;27;20444;-82
2022/04/10 04:52:33;;;;;;;18.00;13.50;;;3.00;99.90;;;;;;5134858;27;20496;-82
2022/04/10 04:55:00;;;;;;;15.90;11.17;;;3.20;99.90;;;;;;5136130;27;20699;-81
2022/04/10 04:57:27;;;;;;;14.00;9.90;;;3.30;99.90;;;;;;5138477;27;20428;-82
2022/04/10 04:59:53;;;;;;;16.37;10.10;;;3.40;99.90;;;;;;5137292;27;20440;-81
2022/04/10 05:02:20;;;;;;;17.50;10.43;;;3.30;99.90;;;;;;5130481;27;20466;-80
2022/04/10 05:04:47;;;;;;;17.73;11.13;;;3.40;99.90;;;;;;5136001;27;20475;-80
2022/04/10 05:07:15;;;;;;;14.93;10.13;;;3.50;99.90;;;;;;5137373;27;20453;-92
2022/04/10 05:09:42;;;;;;;18.80;10.83;;;3.60;99.90;;;;;;5139796;27;20451;-83
2022/04/10 05:12:10;;;;;;;14.30;10.27;;;3.60;99.90;;;;;;5139137;27;20440;-81
2022/04/10 05:14:37;;;;;;;14.33;9.90;;;3.60;99.90;;;;;;5140260;27;20432;-86
2022/04/10 05:17:04;;;;;;;17.35;13.35;;;3.60;99.90;;;;;;5138568;27;20427;-90
2022/04/10 05:19:31;;;;;;;14.97;12.23;;;3.70;99.90;;;;;;5141746;27;20251;-81
2022/04/10 05:21:58;;;;;;;18.30;11.60;;;3.70;99.90;;;;;;5139388;27;20443;-80
2022/04/10 05:24:26;;;;;;;16.60;11.30;;;3.70;99.90;;;;;;5139894;27;20492;-84
2022/04/10 05:26:53;;;;;;;19.67;11.93;;;3.90;99.90;;;;;;5137502;27;20443;-84
2022/04/10 05:29:20;;;;;;;15.07;11.00;;;3.90;99.90;;;;;;5134659;27;20557;-81
2022/04/10 05:31:46;;;;;;;17.00;10.90;;;3.90;99.90;;;;;;5135501;27;20428;-80
2022/04/10 05:34:13;;;;;;;12.83;9.77;;;4.00;99.90;;;;;;5134485;27;20439;-83
2022/04/10 05:36:40;;;;;;;16.13;10.83;;;4.00;99.90;;;;;;5134738;27;20431;-78
2022/04/10 05:39:07;;;;;;;16.20;10.67;;;4.00;99.90;;;;;;5134574;27;20456;-81
2022/04/10 05:41:35;;;;;;;17.00;12.90;;;4.00;99.90;;;;;;5134365;27;20433;-80
2022/04/10 05:44:02;;;;;;;16.87;11.60;;;4.00;99.90;;;;;;5134816;27;20226;-81
2022/04/10 05:46:29;;;;;;;14.50;10.30;;;4.20;99.90;;;;;;5136688;27;20509;-82
2022/04/10 05:48:56;;;;;;;18.93;11.40;;;4.10;99.90;;;;;;5136024;27;20439;-77
2022/04/10 05:51:22;;;;;;;16.77;11.63;;;4.10;99.90;;;;;;5134477;27;20443;-78
2022/04/10 05:53:49;;;;;;;21.33;11.40;;;4.30;99.90;;;;;;5134443;27;20447;-76
2022/04/10 05:56:16;;;;;;;16.83;11.07;;;4.30;99.90;;;;;;5134265;27;20448;-76
2022/04/10 05:58:45;;;;;;;14.67;10.70;;;4.40;99.90;;;;;;5133466;27;20985;-77
2022/04/10 06:01:12;;;;;;;16.87;11.00;;;4.40;99.90;;;;;;5134703;27;20786;-79
2022/04/10 06:03:40;;;;;;;15.27;10.87;;;4.30;99.90;;;;;;5134793;27;20468;-90
2022/04/10 06:06:07;;;;;;;18.83;10.87;;;4.20;99.90;;;;;;5137745;27;20436;-82
2022/04/10 06:08:34;;;;;;;15.83;10.17;;;4.20;99.90;;;;;;5138004;27;20799;-87
2022/04/10 06:11:00;;;;;;;13.73;9.77;;;4.30;99.90;;;;;;5138230;27;20440;-81
2022/04/10 06:13:27;;;;;;;14.53;10.20;;;4.40;99.90;;;;;;5138424;27;20439;-81
2022/04/10 06:15:55;;;;;;;17.90;10.17;;;4.50;99.90;;;;;;5138845;27;20455;-83
2022/04/10 06:18:22;;;;;;;15.90;9.97;;;4.40;99.90;;;;;;5139030;27;20450;-88
2022/04/10 06:20:49;;;;;;;15.27;9.73;;;4.30;99.90;;;;;;5139755;27;20451;-81
2022/04/10 06:23:16;;;;;;;14.43;9.33;;;4.40;99.90;;;;;;5139621;27;20447;-85
2022/04/10 06:25:43;;;;;;;14.30;9.53;;;4.30;99.90;;;;;;5139593;27;20437;-80
2022/04/10 06:28:10;;;;;;;15.10;9.90;;;4.50;99.90;;;;;;5131381;27;20460;-86
2022/04/10 06:30:38;;;;;;;16.13;9.47;;;4.70;99.90;;;;;;5121604;27;20429;-85
2022/04/10 06:33:06;;;;;;;16.13;9.83;;;4.90;99.90;;;;;;5116828;27;20437;-87
2022/04/10 06:35:33;;;;;;;13.30;9.67;;;4.80;99.90;;;;;;5117621;27;20449;-79
2022/04/10 06:38:00;;;;;;;14.20;9.40;;;4.70;99.90;;;;;;5122438;27;20277;-82
2022/04/10 06:40:27;;;;;;;13.97;9.10;;;4.70;99.90;;;;;;5137273;27;20961;-80
2022/04/10 06:42:54;;;;;;;17.17;9.90;;;4.70;99.90;;;;;;5128777;27;21166;-79
2022/04/10 06:45:21;;;;;;;13.50;9.37;;;4.70;99.90;;;;;;5129886;27;20216;-81
2022/04/10 06:47:48;;;;;;;17.03;9.53;;;4.80;99.90;;;;;;5122076;27;20482;-80
2022/04/10 06:50:20;;;;;;;16.67;9.63;;;4.70;99.90;;;;;;5118156;28;20439;-81
2022/04/10 06:52:47;;;;;;;18.87;9.83;;;4.70;99.90;;;;;;5120463;27;20812;-79
2022/04/10 06:55:14;;;;;;;15.30;10.43;;;4.70;99.90;;;;;;5129602;27;20449;-85
2022/04/10 06:57:42;;;;;;;17.93;9.63;;;4.90;99.90;;;;;;5122619;27;20441;-79
2022/04/10 07:00:12;;;;;;;19.30;10.63;;;4.90;99.90;;;;;;5118032;28;20532;-79
2022/04/10 07:02:44;;;;;;;15.80;10.00;;;5.00;99.90;;;;;;5118280;28;20445;-86
2022/04/10 07:05:11;;;;;;;16.03;10.23;;;5.10;99.90;;;;;;5117189;27;20588;-82
2022/04/10 07:07:43;;;;;;;16.07;12.30;;;5.20;99.90;;;;;;5123011;27;20441;-81
2022/04/10 07:10:10;;;;;;;26.93;23.10;;;5.10;99.90;;;;;;5120496;27;20669;-78
2022/04/10 07:12:43;;;;;;;32.53;28.13;;;5.10;99.90;;;;;;5126150;27;20443;-86
2022/04/10 07:15:15;;;;;;;44.80;34.30;;;5.20;99.90;;;;;;5128002;27;20942;-82
2022/04/10 07:17:43;;;;;;;44.95;37.63;;;5.40;99.90;;;;;;5126252;27;20432;-83
2022/04/10 07:20:11;;;;;;;31.13;23.43;;;5.50;99.90;;;;;;5134083;27;20298;-81
2022/04/10 07:25:24;;;;;;;20.03;13.10;;;5.50;99.90;;;;;;5129231;27;20498;-79
2022/04/10 07:27:50;;;;;;;22.47;13.37;;;5.40;99.90;;;;;;5123879;27;20424;-81
2022/04/10 07:30:17;;;;;;;18.27;11.10;;;5.40;99.90;;;;;;5128635;27;20184;-86
2022/04/10 07:32:51;;;;;;;16.80;11.57;;;5.50;99.90;;;;;;5135923;27;20570;-85
2022/04/10 07:35:22;;;;;;;16.90;11.40;;;5.60;99.90;;;;;;5137039;27;20424;-84
2022/04/10 07:37:49;;;;;;;22.87;15.10;;;5.80;99.90;;;;;;5137700;27;20496;-87
2022/04/10 07:40:16;;;;;;;24.53;11.53;;;5.90;99.90;;;;;;5136530;27;20211;-84
2022/04/10 07:42:45;;;;;;;16.90;9.60;;;6.10;99.90;;;;;;5136529;27;20196;-86
2022/04/10 07:47:25;;;;;;;12.80;8.43;;;6.20;99.90;;;;;;5136295;27;20231;-84
2022/04/10 07:48:01;;;;;;;17.73;8.63;;;6.40;99.90;;;;;;5136813;27;20279;-85
2022/04/10 07:50:29;;;;;;;13.07;9.23;;;6.50;99.90;;;;;;5138934;27;20209;-87
2022/04/10 07:52:57;;;;;;;13.53;8.80;;;6.60;99.90;;;;;;5138390;27;20561;-86
2022/04/10 07:55:25;;;;;;;14.67;9.33;;;6.80;99.90;;;;;;5136588;27;20196;-85
2022/04/10 07:57:54;;;;;;;12.80;8.80;;;6.80;99.90;;;;;;5137479;27;20253;-87
2022/04/10 08:00:21;;;;;;;12.63;8.37;;;6.90;99.90;;;;;;5136892;27;20199;-87
2022/04/10 08:02:49;;;;;;;21.10;9.40;;;7.00;99.90;;;;;;5137137;27;20681;-89
2022/04/10 08:05:17;;;;;;;19.67;9.27;;;7.10;99.90;;;;;;5136493;27;20235;-89
2022/04/10 08:07:46;;;;;;;14.23;10.23;;;7.20;99.90;;;;;;5135106;27;20437;-79
2022/04/10 08:10:22;;;;;;;16.93;9.30;;;7.50;99.90;;;;;;5136206;27;20200;-84
2022/04/10 08:12:49;;;;;;;18.00;8.40;;;7.50;99.90;;;;;;5136689;27;20207;-86
2022/04/10 08:15:17;;;;;;;16.67;9.27;;;7.70;99.90;;;;;;5137023;27;20200;-87
2022/04/10 08:17:45;;;;;;;22.13;9.60;;;7.80;99.90;;;;;;5137664;27;20191;-85
2022/04/10 08:20:12;;;;;;;14.83;8.60;;;7.80;99.90;;;;;;5137065;27;20200;-87
2022/04/10 08:22:40;;;;;;;16.23;7.97;;;7.80;99.90;;;;;;5137860;27;20617;-88
2022/04/10 08:25:09;;;;;;;20.23;8.47;;;7.70;99.90;;;;;;5139368;27;20234;-86
2022/04/10 08:27:37;;;;;;;13.70;8.00;;;7.80;99.90;;;;;;5137904;27;20291;-88
2022/04/10 08:30:04;;;;;;;13.60;8.87;;;7.80;99.90;;;;;;5138585;27;20204;-88
2022/04/10 08:32:37;;;;;;;15.90;9.30;;;7.60;99.90;;;;;;5138899;27;20204;-88
2022/04/10 08:35:05;;;;;;;15.27;9.33;;;7.70;99.90;;;;;;5140175;27;20277;-87
2022/04/10 08:37:32;;;;;;;19.20;11.20;;;7.70;99.90;;;;;;5140743;27;20600;-86
2022/04/10 08:39:59;;;;;;;18.77;12.33;;;7.80;99.90;;;;;;5140565;27;20203;-87
2022/04/10 08:42:27;;;;;;;12.50;8.30;;;7.90;99.90;;;;;;5143013;27;20207;-86
2022/04/10 08:44:56;;;;;;;15.20;10.20;;;7.80;99.90;;;;;;5146577;27;20219;-88
2022/04/10 08:47:23;;;;;;;16.13;9.47;;;7.90;99.90;;;;;;5147780;27;20208;-86
2022/04/10 08:49:52;;;;;;;19.27;9.20;;;8.10;99.90;;;;;;5147655;27;20259;-87
2022/04/10 08:52:22;;;;;;;16.47;8.23;;;8.40;99.90;;;;;;5147057;27;20199;-85
2022/04/10 08:54:50;;;;;;;16.43;8.13;;;8.70;99.90;;;;;;5136192;27;20200;-85
2022/04/10 08:57:17;;;;;;;15.80;8.03;;;8.70;99.90;;;;;;5135574;27;20210;-83
2022/04/10 08:59:44;;;;;;;14.47;7.70;;;8.90;99.90;;;;;;5135091;27;20661;-84
2022/04/10 09:02:12;;;;;;;14.40;8.87;;;9.00;99.90;;;;;;5135579;27;20203;-86
2022/04/10 09:04:39;;;;;;;13.17;7.40;;;9.00;99.90;;;;;;5134914;27;20228;-84
2022/04/10 09:07:09;;;;;;;14.33;7.73;;;9.20;99.90;;;;;;5135264;27;20209;-85
2022/04/10 09:09:37;;;;;;;12.03;7.23;;;9.20;99.90;;;;;;5135243;27;20639;-85
2022/04/10 09:12:05;;;;;;;14.03;7.27;;;9.10;99.90;;;;;;5136165;27;20204;-88
2022/04/10 09:14:36;;;;;;;15.27;7.20;;;9.20;99.90;;;;;;5135415;27;20192;-86
2022/04/10 09:17:16;;;;;;;12.93;6.50;;;9.20;99.90;;;;;;5135540;27;20195;-88
2022/04/10 09:19:45;;;;;;;11.27;6.30;;;9.40;99.90;;;;;;5135568;27;20661;-87
2022/04/10 09:22:27;;;;;;;13.30;6.73;;;9.50;99.90;;;;;;5134718;27;20647;-85
2022/04/10 09:25:11;;;;;;;11.17;6.63;;;9.40;99.90;;;;;;5134840;27;20229;-84
2022/04/10 09:27:41;;;;;;;10.30;5.93;;;9.50;99.90;;;;;;5134993;27;20206;-86
2022/04/10 09:30:09;;;;;;;13.30;6.17;;;9.80;99.90;;;;;;5135247;27;20203;-85
2022/04/10 09:32:44;;;;;;;11.33;5.73;;;9.90;99.90;;;;;;5135194;27;20215;-89
2022/04/10 09:35:12;;;;;;;10.90;6.10;;;10.00;99.90;;;;;;5134666;27;20217;-86
2022/04/10 09:37:46;;;;;;;9.90;7.10;;;10.10;99.90;;;;;;5134833;27;20207;-83
2022/04/10 09:40:29;;;;;;;9.50;5.40;;;10.30;99.90;;;;;;5138095;27;20219;-82
2022/04/10 09:43:00;;;;;;;10.67;5.37;;;10.20;99.90;;;;;;5139469;27;20306;-81
2022/04/10 09:45:32;;;;;;;10.00;6.45;;;10.10;99.90;;;;;;5138181;27;20446;-86
2022/04/10 09:48:16;;;;;;;9.67;5.33;;;10.40;99.90;;;;;;5139274;27;20204;-86
2022/04/10 09:50:43;;;;;;;9.93;4.63;;;10.50;99.90;;;;;;5138733;27;20212;-87
2022/04/10 09:53:12;;;;;;;6.60;4.37;;;10.70;99.90;;;;;;5139554;27;20200;-87
2022/04/10 09:55:41;;;;;;;10.07;4.80;;;10.80;99.90;;;;;;5139080;27;20196;-85
2022/04/10 09:58:10;;;;;;;9.73;4.87;;;10.80;99.90;;;;;;5137628;27;20211;-87
2022/04/10 10:00:40;;;;;;;10.70;4.53;;;10.80;99.90;;;;;;5137485;27;20323;-81
2022/04/10 10:03:08;;;;;;;9.63;4.33;;;10.90;99.90;;;;;;5138761;27;20604;-83
2022/04/10 10:05:36;;;;;;;10.40;4.30;;;10.90;99.90;;;;;;5138218;27;20702;-84
2022/04/10 10:08:03;;;;;;;8.57;4.63;;;10.90;99.90;;;;;;5138444;27;20715;-87
2022/04/10 10:10:33;;;;;;;8.50;5.20;;;10.80;99.90;;;;;;5137534;27;20427;-83
2022/04/10 10:13:01;;;;;;;7.50;5.20;;;10.60;99.90;;;;;;5138486;27;20647;-85
2022/04/10 10:15:28;;;;;;;8.17;4.90;;;10.60;99.90;;;;;;5138318;27;20227;-88
2022/04/10 10:17:56;;;;;;;6.07;4.27;;;10.60;99.90;;;;;;5139205;27;20203;-88
2022/04/10 10:20:24;;;;;;;5.60;3.87;;;10.40;99.90;;;;;;5138924;27;20184;-89
2022/04/10 10:22:52;;;;;;;7.30;4.43;;;10.60;99.90;;;;;;5141399;27;20204;-87
2022/04/10 10:25:27;;;;;;;7.27;5.33;;;10.60;99.90;;;;;;5142330;27;20224;-83
2022/04/10 10:28:27;;;;;;;6.27;4.10;;;10.70;99.90;;;;;;5141120;27;20636;-87
2022/04/10 10:31:09;;;;;;;6.57;3.90;;;10.90;99.90;;;;;;5137868;27;20203;-87
2022/04/10 10:33:40;;;;;;;5.90;4.13;;;11.00;99.90;;;;;;5137015;27;20574;-87
2022/04/10 10:36:09;;;;;;;5.70;3.60;;;11.10;99.90;;;;;;5137871;27;20212;-85
2022/04/10 10:38:36;;;;;;;8.03;3.87;;;11.40;99.90;;;;;;5137967;27;20228;-84
2022/04/10 10:41:30;;;;;;;5.73;3.10;;;11.70;99.90;;;;;;5138131;27;20289;-86
2022/04/10 10:43:59;;;;;;;10.50;3.30;;;12.10;99.90;;;;;;5139267;27;20210;-85
2022/04/10 10:46:28;;;;;;;8.17;3.30;;;12.40;99.90;;;;;;5139467;27;20697;-86
2022/04/10 10:49:20;;;;;;;3.53;2.73;;;12.10;99.90;;;;;;5139712;27;20203;-86
2022/04/10 10:51:47;;;;;;;6.50;3.07;;;11.80;99.90;;;;;;5137679;27;20190;-87
2022/04/10 10:54:18;;;;;;;4.13;2.90;;;11.80;99.90;;;;;;5138996;27;20206;-86
2022/04/10 10:56:46;;;;;;;6.97;3.50;;;11.90;99.90;;;;;;5143932;27;20205;-83
2022/04/10 10:59:26;;;;;;;3.97;3.43;;;12.10;99.90;;;;;;5144354;27;20221;-86
2022/04/10 11:02:02;;;;;;;7.13;2.90;;;12.30;99.90;;;;;;5139238;27;20611;-81
2022/04/10 11:04:33;;;;;;;5.90;2.90;;;12.40;99.90;;;;;;5137673;27;20705;-83
2022/04/10 11:07:12;;;;;;;7.90;3.20;;;12.30;99.90;;;;;;5137327;27;20197;-81
2022/04/10 11:09:49;;;;;;;5.10;3.20;;;12.30;99.90;;;;;;5137186;27;20197;-86
2022/04/10 11:12:16;;;;;;;4.93;3.20;;;12.00;99.90;;;;;;5136706;27;20200;-83
2022/04/10 11:14:45;;;;;;;6.37;3.40;;;11.80;99.90;;;;;;5136425;27;20211;-86
2022/04/10 11:17:17;;;;;;;6.90;3.80;;;12.00;99.90;;;;;;5137261;27;20398;-84
2022/04/10 11:19:46;;;;;;;4.37;3.00;;;11.80;99.90;;;;;;5137345;27;20198;-83
2022/04/10 11:22:16;;;;;;;3.97;2.90;;;12.00;99.90;;;;;;5138067;27;20201;-83
2022/04/10 11:24:45;;;;;;;3.73;2.60;;;12.30;99.90;;;;;;5138686;27;20203;-85
2022/04/10 11:27:15;;;;;;;7.90;3.07;;;12.00;99.90;;;;;;5139023;27;20197;-80
2022/04/10 11:30:04;;;;;;;5.17;3.07;;;11.70;99.90;;;;;;5139163;27;20323;-86
2022/04/10 11:32:45;;;;;;;5.13;2.70;;;11.70;99.90;;;;;;5127397;27;20190;-87
2022/04/10 11:35:23;;;;;;;3.27;2.73;;;11.60;99.90;;;;;;5128693;27;20186;-87
2022/04/10 11:37:57;;;;;;;6.93;3.00;;;11.80;99.90;;;;;;5134052;27;20281;-86
2022/04/10 11:40:31;;;;;;;6.77;2.70;;;12.20;99.90;;;;;;5136795;27;20668;-86
2022/04/10 11:43:07;;;;;;;2.90;2.53;;;12.20;99.60;;;;;;5136315;27;20205;-87
2022/04/10 11:45:40;;;;;;;7.23;2.97;;;12.20;99.80;;;;;;5136019;27;20226;-86
2022/04/10 11:48:11;;;;;;;5.53;2.80;;;12.50;99.90;;;;;;5134873;27;20420;-86
2022/04/10 11:50:44;;;;;;;3.70;3.13;;;12.90;99.90;;;;;;5135394;27;20199;-86
2022/04/10 11:53:13;;;;;;;5.33;2.30;;;13.10;99.90;;;;;;5115185;27;20204;-86
2022/04/10 11:55:41;;;;;;;3.20;2.67;;;13.40;99.00;;;;;;5115358;28;20207;-84
2022/04/10 11:58:15;;;;;;;4.67;2.40;;;13.20;98.30;;;;;;5115335;28;20196;-86
2022/04/10 12:00:53;;;;;;;6.03;2.60;;;13.30;97.90;;;;;;5115514;27;20206;-87
2022/04/10 12:03:21;;;;;;;3.43;2.57;;;12.60;98.60;;;;;;5114699;28;20199;-87
2022/04/10 12:05:49;;;;;;;5.50;2.50;;;12.30;98.80;;;;;;5115119;28;20261;-85
2022/04/10 12:08:17;;;;;;;6.23;2.67;;;12.70;99.80;;;;;;5117473;27;20195;-85
2022/04/10 12:10:52;;;;;;;4.30;2.60;;;13.10;99.40;;;;;;5120440;27;20196;-84
2022/04/10 12:13:19;;;;;;;5.37;2.80;;;13.70;98.50;;;;;;5117742;27;20592;-85
2022/04/10 12:15:58;;;;;;;5.73;2.77;;;14.10;97.90;;;;;;5114694;27;20208;-84
2022/04/10 12:18:27;;;;;;;5.33;2.80;;;14.10;96.90;;;;;;5114386;28;20565;-85
2022/04/10 12:20:58;;;;;;;5.57;2.60;;;13.80;96.70;;;;;;5114723;27;20203;-84
2022/04/10 12:23:26;;;;;;;5.27;2.23;;;13.50;96.80;;;;;;5120370;27;20552;-86
2022/04/10 12:25:55;;;;;;;5.30;2.30;;;13.10;97.10;;;;;;5116474;27;20600;-86
2022/04/10 12:28:22;;;;;;;4.00;2.27;;;13.10;96.80;;;;;;5117758;27;20223;-88
2022/04/10 12:30:52;;;;;;;3.30;2.00;;;13.00;96.80;;;;;;5117800;27;20215;-86
2022/04/10 12:33:19;;;;;;;3.83;2.27;;;12.80;97.50;;;;;;5119890;27;20200;-86
2022/04/10 12:35:48;;;;;;;4.87;2.07;;;12.70;97.00;;;;;;5125741;27;20668;-85
2022/04/10 12:38:17;;;;;;;4.70;2.67;;;12.60;98.50;;;;;;5119152;27;20414;-85
2022/04/10 12:40:45;;;;;;;4.77;2.60;;;12.70;97.50;;;;;;5129206;27;20333;-85
2022/04/10 12:43:13;;;;;;;4.47;2.27;;;12.60;97.70;;;;;;5122109;27;20661;-85
2022/04/10 12:45:42;;;;;;;3.57;2.40;;;12.70;97.60;;;;;;5120874;27;20231;-84
2022/04/10 12:48:24;;;;;;;5.77;2.33;;;13.00;97.60;;;;;;5114598;27;20220;-83
2022/04/10 12:51:07;;;;;;;3.30;2.50;;;13.30;97.10;;;;;;5114673;28;20244;-85
2022/04/10 12:53:34;;;;;;;4.00;2.40;;;13.60;97.40;;;;;;5114508;27;20196;-83
2022/04/10 12:56:01;;;;;;;4.53;2.43;;;13.60;96.40;;;;;;5115069;28;20200;-85
2022/04/10 12:58:29;;;;;;;5.73;2.27;;;13.50;96.80;;;;;;5114263;28;20200;-82
2022/04/10 13:00:56;;;;;;;4.67;2.07;;;13.60;96.30;;;;;;5114185;28;20253;-82
2022/04/10 13:03:26;;;;;;;4.68;2.85;;;13.70;96.50;;;;;;5113208;27;20429;-84